Ergonot — WDB8189 — position and weather

sailwx.info

Track history (hours):
 
Tides and Currents Weather Stations Pressure Air Temp Water Temp Dewpoint Dewpoint Depression Visibility Wind Speed Wind Dir Waves Ship Positions

Ergonot

Owner: Ergon Marine & Industrial Supply, Vicksburg, MS. More information available from US FCC via Universal Licensing System and Coast Guard Vessel Documentation Center.

Last reported at 2016-Aug-12 19:27 UTC. Time now 2016-Aug-30 01:18 UTC.
Position N 32°20' W 090°54'.
Warning: this ship's position is 17 days out of date.

Length 56 m; draft 2 m.

Type: Towing. MMSI: 365905904.

Date/timePositionNaut miles runAvg speedWind from/ knotsBaromVisibWave heightAir tempDewpointWater temp
2016-Aug-12 19:27N 32°20' W 090°54'4 1.2
2016-Aug-12 16:33N 32°23' W 090°53'0 0.0
2016-Aug-12 15:33N 32°23' W 090°53'0 0.0
2016-Aug-12 14:33N 32°23' W 090°53'3 3.3
2016-Aug-12 13:33N 32°20' W 090°54'0 0.3
2016-Aug-12 12:33N 32°20' W 090°54'0 0.0
2016-Aug-11 22:32N 32°20' W 090°54'2 2.2
2016-Aug-11 21:33N 32°22' W 090°53'0 0.0
2016-Aug-11 20:33N 32°22' W 090°53'0 0.0
2016-Aug-11 19:32N 32°22' W 090°53'3 2.7
2016-Aug-11 18:33N 32°24' W 090°55'2 1.9
2016-Aug-11 17:33N 32°23' W 090°53'0 0.0
2016-Aug-11 16:33N 32°23' W 090°53'0 0.0
2016-Aug-11 15:33N 32°23' W 090°53'0 0.0
2016-Aug-11 14:33N 32°23' W 090°53'1 0.5
2016-Aug-11 13:33N 32°23' W 090°53'3 3.2
2016-Aug-11 12:34N 32°20' W 090°54'0 0.4
2016-Aug-11 11:34N 32°20' W 090°54'0 0.0
2016-Aug-11 10:33N 32°20' W 090°54'0 0.0
2016-Aug-11 09:33N 32°20' W 090°54'0 0.0
2016-Aug-11 08:33N 32°20' W 090°54'0 0.0
2016-Aug-11 07:33N 32°20' W 090°54'0 0.0
2016-Aug-11 06:33N 32°20' W 090°54'0 0.0
2016-Aug-11 05:33N 32°20' W 090°54'0 0.0
2016-Aug-11 04:33N 32°20' W 090°54'0 0.0
2016-Aug-11 03:33N 32°20' W 090°54'0 0.0
2016-Aug-11 02:33N 32°20' W 090°54'0 0.0
2016-Aug-11 01:33N 32°20' W 090°54'0 0.0
2016-Aug-11 00:33N 32°20' W 090°54'0 0.0
2016-Aug-10 23:33N 32°20' W 090°54'0 0.0
2016-Aug-10 22:33N 32°20' W 090°54'0 0.0
2016-Aug-10 21:33N 32°20' W 090°54'0 0.0
2016-Aug-10 20:33N 32°20' W 090°54'0 0.0
2016-Aug-10 19:33N 32°20' W 090°54'0 0.0
2016-Aug-10 18:33N 32°20' W 090°54'0 0.1
2016-Aug-10 17:33N 32°20' W 090°54'3 3.3
2016-Aug-10 16:33N 32°23' W 090°53'0 0.0
2016-Aug-10 15:33N 32°23' W 090°53'3 3.4
2016-Aug-10 14:33N 32°20' W 090°54'0 0.0
2016-Aug-10 13:33N 32°20' W 090°54'0 0.0
2016-Aug-10 12:33N 32°20' W 090°54'0 0.0
2016-Aug-10 11:33N 32°20' W 090°54'0 0.0
2016-Aug-10 10:33N 32°20' W 090°54'0 0.0
2016-Aug-10 09:33N 32°20' W 090°54'0 0.0
2016-Aug-10 08:33N 32°20' W 090°54'0 0.0
2016-Aug-10 07:33N 32°20' W 090°54'0 0.0
2016-Aug-10 06:33N 32°20' W 090°54'0 0.0
2016-Aug-10 05:33N 32°20' W 090°54'0 0.0
2016-Aug-10 04:33N 32°20' W 090°54'0 0.0
2016-Aug-10 03:33N 32°20' W 090°54'0 0.0
2016-Aug-10 02:33N 32°20' W 090°54'0 0.0
2016-Aug-10 01:33N 32°20' W 090°54'0 0.0
2016-Aug-10 00:33N 32°20' W 090°54'0 0.0
2016-Aug-09 23:33N 32°20' W 090°54'0 0.0
2016-Aug-09 22:33N 32°20' W 090°54'0 0.0
2016-Aug-09 21:33N 32°20' W 090°54'0 0.0
2016-Aug-09 20:33N 32°20' W 090°54'0 0.0
2016-Aug-09 19:33N 32°20' W 090°54'0 0.0
2016-Aug-09 18:33N 32°20' W 090°54'0 0.0
2016-Aug-09 17:33N 32°20' W 090°54'0 0.0
2016-Aug-09 16:33N 32°20' W 090°54'0 0.0
2016-Aug-09 15:33N 32°20' W 090°54'0 0.0
2016-Aug-09 14:33N 32°20' W 090°54'0 0.0
2016-Aug-09 13:33N 32°20' W 090°54'0 0.0
2016-Aug-09 12:33N 32°20' W 090°54'0 0.0
2016-Aug-09 11:33N 32°20' W 090°54'0 0.0
2016-Aug-09 10:33N 32°20' W 090°54'0 0.0
2016-Aug-09 09:33N 32°20' W 090°54'0 0.0
2016-Aug-09 08:33N 32°20' W 090°54'0 0.0
2016-Aug-09 07:33N 32°20' W 090°54'0 0.0
2016-Aug-09 06:33N 32°20' W 090°54'0 0.0
2016-Aug-09 05:33N 32°20' W 090°54'0 0.0
2016-Aug-09 04:33N 32°20' W 090°54'0 0.0
2016-Aug-09 03:33N 32°20' W 090°54'0 0.0
2016-Aug-09 02:33N 32°20' W 090°54'0 0.0
2016-Aug-09 01:33N 32°20' W 090°54'0 0.0
2016-Aug-09 00:33N 32°20' W 090°54'0 0.0
2016-Aug-08 23:33N 32°20' W 090°54'0 0.0
2016-Aug-08 22:33N 32°20' W 090°54'0 0.0
2016-Aug-08 21:33N 32°20' W 090°54'0 0.0
2016-Aug-08 20:33N 32°20' W 090°54'0 0.0
2016-Aug-08 19:33N 32°20' W 090°54'0 0.0
2016-Aug-08 18:33N 32°20' W 090°54'0 0.0
2016-Aug-08 17:33N 32°20' W 090°54'0 0.0
2016-Aug-08 16:33N 32°20' W 090°54'0 0.0
2016-Aug-08 15:33N 32°20' W 090°54'0 0.0
2016-Aug-08 14:33N 32°20' W 090°54'0 0.0
2016-Aug-08 13:33N 32°20' W 090°54'0 0.0
2016-Aug-08 12:33N 32°20' W 090°54'0 0.0
2016-Aug-08 11:33N 32°20' W 090°54'0 0.0
2016-Aug-08 10:33N 32°20' W 090°54'0 0.0
2016-Aug-08 09:33N 32°20' W 090°54'0 0.0
2016-Aug-08 08:33N 32°20' W 090°54'0 0.0
2016-Aug-08 07:33N 32°20' W 090°54'0 0.0
2016-Aug-08 06:33N 32°20' W 090°54'0 0.0
2016-Aug-08 05:33N 32°20' W 090°54'0 0.0
2016-Aug-08 04:33N 32°20' W 090°54'0 0.0
2016-Aug-08 03:33N 32°20' W 090°54'0 0.0
2016-Aug-08 02:33N 32°20' W 090°54'0 0.0
2016-Aug-08 01:33N 32°20' W 090°54'0 0.0
2016-Aug-08 00:33N 32°20' W 090°54'0 0.0
2016-Aug-07 23:33N 32°20' W 090°54'0 0.0
2016-Aug-07 22:33N 32°20' W 090°54'0 0.0
2016-Aug-07 21:33N 32°20' W 090°54'0 0.0
2016-Aug-07 20:33N 32°20' W 090°54'0 0.0
2016-Aug-07 19:33N 32°20' W 090°54'0 0.0
2016-Aug-07 18:33N 32°20' W 090°54'0 0.0
2016-Aug-07 17:33N 32°20' W 090°54'0 0.0
2016-Aug-07 16:33N 32°20' W 090°54'0 0.0
2016-Aug-07 15:33N 32°20' W 090°54'0 0.0
2016-Aug-07 14:33N 32°20' W 090°54'0 0.0
2016-Aug-07 13:34N 32°20' W 090°54'0 0.0
2016-Aug-07 12:33N 32°20' W 090°54'0 0.0
2016-Aug-07 11:34N 32°20' W 090°54'0 0.0
2016-Aug-07 10:34N 32°20' W 090°54'0 0.0
2016-Aug-07 09:34N 32°20' W 090°54'0 0.0
2016-Aug-07 08:34N 32°20' W 090°54'0 0.0
2016-Aug-07 07:34N 32°20' W 090°54'0 0.0
2016-Aug-07 06:34N 32°20' W 090°54'0 0.0
2016-Aug-07 04:34N 32°20' W 090°54'0 0.0
2016-Aug-07 03:33N 32°20' W 090°54'0 0.0
2016-Aug-07 02:33N 32°20' W 090°54'0 0.0
2016-Aug-07 01:34N 32°20' W 090°54'0 0.0
2016-Aug-07 00:34N 32°20' W 090°54'0 0.0
2016-Aug-06 23:33N 32°20' W 090°54'0 0.0
2016-Aug-06 22:33N 32°20' W 090°54'0 0.0
2016-Aug-06 21:33N 32°20' W 090°54'0 0.0
2016-Aug-06 20:34N 32°20' W 090°54'0 0.0
2016-Aug-06 19:33N 32°20' W 090°54'0 0.0
2016-Aug-06 18:34N 32°20' W 090°54'0 0.0
2016-Aug-06 17:34N 32°20' W 090°54'0 0.0
2016-Aug-06 16:33N 32°20' W 090°54'0 0.0
2016-Aug-06 15:34N 32°20' W 090°54'0 0.0
2016-Aug-06 14:34N 32°20' W 090°54'0 0.0
2016-Aug-06 13:33N 32°20' W 090°54'0 0.0
2016-Aug-06 12:33N 32°20' W 090°54'0 0.0
2016-Aug-06 11:34N 32°20' W 090°54'0 0.0
2016-Aug-06 10:33N 32°20' W 090°54'0 0.0
2016-Aug-06 09:34N 32°20' W 090°54'0 0.0
2016-Aug-06 08:34N 32°20' W 090°54'0 0.0
2016-Aug-05 20:22N 32°20' W 090°54'0 0.0
2016-Aug-05 19:33N 32°20' W 090°54'0 0.0
2016-Aug-05 18:33N 32°20' W 090°54'0 0.0
2016-Aug-05 17:33N 32°20' W 090°54'0 0.0
2016-Aug-05 16:33N 32°20' W 090°54'0 0.0
2016-Aug-05 15:33N 32°20' W 090°54'0 0.0
2016-Aug-05 14:33N 32°20' W 090°54'0 0.0
2016-Aug-05 13:33N 32°20' W 090°54'0 0.0
2016-Aug-05 12:33N 32°20' W 090°54'0 0.0
2016-Aug-05 11:33N 32°20' W 090°54'0 0.0
2016-Aug-05 10:33N 32°20' W 090°54'0 0.0
2016-Aug-05 09:33N 32°20' W 090°54'0 0.0
2016-Aug-05 08:33N 32°20' W 090°54'0 0.0
2016-Aug-05 07:33N 32°20' W 090°54'0 0.0
2016-Aug-05 06:33N 32°20' W 090°54'0 0.0
2016-Aug-05 04:33N 32°20' W 090°54'0 0.0
2016-Aug-05 03:33N 32°20' W 090°54'0 0.0
2016-Aug-05 02:33N 32°20' W 090°54'0 0.0
2016-Aug-05 01:33N 32°20' W 090°54'0 0.0
2016-Aug-05 00:33N 32°20' W 090°54'0 0.0
2016-Aug-04 23:33N 32°20' W 090°54'0 0.0
2016-Aug-04 22:33N 32°20' W 090°54'0 0.0
2016-Aug-04 21:33N 32°20' W 090°54'0 0.0
2016-Aug-04 20:33N 32°20' W 090°54'0 0.0
2016-Aug-04 19:33N 32°20' W 090°54'0 0.0
2016-Aug-04 18:33N 32°20' W 090°54'0 0.0
2016-Aug-04 17:33N 32°20' W 090°54'0 0.0
2016-Aug-04 16:33N 32°20' W 090°54'0 0.0
2016-Aug-04 15:33N 32°20' W 090°54'0 0.0
2016-Aug-04 14:33N 32°20' W 090°54'0 0.0
2016-Aug-04 13:33N 32°20' W 090°54'0 0.0
2016-Aug-04 11:33N 32°20' W 090°54'0 0.0
2016-Aug-04 10:33N 32°20' W 090°54'0 0.0
2016-Aug-04 09:33N 32°20' W 090°54'0 0.0
2016-Aug-04 08:33N 32°20' W 090°54'0 0.0
2016-Aug-04 07:33N 32°20' W 090°54'0 0.0
2016-Aug-04 06:33N 32°20' W 090°54'0 0.0
2016-Aug-04 04:33N 32°20' W 090°54'0 0.0
2016-Aug-04 03:33N 32°20' W 090°54'0 0.0
2016-Aug-04 02:34N 32°20' W 090°54'0 0.0
2016-Aug-04 01:33N 32°20' W 090°54'0 0.0
2016-Aug-04 00:33N 32°20' W 090°54'0 0.0
2016-Aug-03 23:33N 32°20' W 090°54'0 0.0
2016-Aug-03 22:34N 32°20' W 090°54'0 0.0
2016-Aug-03 21:33N 32°20' W 090°54'0 0.0
2016-Aug-03 20:33N 32°20' W 090°54'0 0.0
2016-Aug-03 19:33N 32°20' W 090°54'0 0.0
2016-Aug-03 18:33N 32°20' W 090°54'0 0.0
2016-Aug-03 17:33N 32°20' W 090°54'0 0.0
2016-Aug-03 16:33N 32°20' W 090°54'0 0.0
2016-Aug-03 15:33N 32°20' W 090°54'0 0.0
2016-Aug-03 14:33N 32°20' W 090°54'0 0.0
2016-Aug-03 13:34N 32°20' W 090°54'0 0.0
2016-Aug-03 12:34N 32°20' W 090°54'0 0.0
2016-Aug-03 11:34N 32°20' W 090°54'0 0.0
2016-Aug-03 10:33N 32°20' W 090°54'0 0.0
2016-Aug-03 09:33N 32°20' W 090°54'0 0.0
2016-Aug-03 08:34N 32°20' W 090°54'0 0.0
2016-Aug-03 07:33N 32°20' W 090°54'0 0.0
2016-Aug-03 06:33N 32°20' W 090°54'0 0.0
2016-Aug-03 04:33N 32°20' W 090°54'0 0.0
2016-Aug-03 03:34N 32°20' W 090°54'0 0.0
2016-Aug-03 02:33N 32°20' W 090°54'0 0.0
2016-Aug-03 01:33N 32°20' W 090°54'0 0.0
2016-Aug-03 00:33N 32°20' W 090°54'0 0.0
2016-Aug-02 23:34N 32°20' W 090°54'0 0.0
2016-Aug-02 22:33N 32°20' W 090°54'0 0.0
2016-Aug-02 21:33N 32°20' W 090°54'0 0.0
2016-Aug-02 20:33N 32°20' W 090°54'0 0.0
2016-Aug-02 19:33N 32°20' W 090°54'  
Track history (hours):
 
Tides and Currents Weather Stations Pressure Air Temp Water Temp Dewpoint Dewpoint Depression Visibility Wind Speed Wind Dir Waves Ship Positions

Ergonot

Owner: Ergon Marine & Industrial Supply, Vicksburg, MS. More information available from US FCC via Universal Licensing System and Coast Guard Vessel Documentation Center.

Last reported at 2016-Aug-12 19:27 UTC. Time now 2016-Aug-30 01:18 UTC.
Position N 32°20' W 090°54'.
Warning: this ship's position is 17 days out of date.

Length 56 m; draft 2 m.

Type: Towing. MMSI: 365905904.

Date/timePositionNaut miles runAvg speedWind from/ knotsBaromVisibWave heightAir tempDewpointWater temp
2016-Aug-12 19:27N 32°20' W 090°54'4 1.2
2016-Aug-12 16:33N 32°23' W 090°53'0 0.0
2016-Aug-12 15:33N 32°23' W 090°53'0 0.0
2016-Aug-12 14:33N 32°23' W 090°53'3 3.3
2016-Aug-12 13:33N 32°20' W 090°54'0 0.3
2016-Aug-12 12:33N 32°20' W 090°54'0 0.0
2016-Aug-11 22:32N 32°20' W 090°54'2 2.2
2016-Aug-11 21:33N 32°22' W 090°53'0 0.0
2016-Aug-11 20:33N 32°22' W 090°53'0 0.0
2016-Aug-11 19:32N 32°22' W 090°53'3 2.7
2016-Aug-11 18:33N 32°24' W 090°55'2 1.9
2016-Aug-11 17:33N 32°23' W 090°53'0 0.0
2016-Aug-11 16:33N 32°23' W 090°53'0 0.0
2016-Aug-11 15:33N 32°23' W 090°53'0 0.0
2016-Aug-11 14:33N 32°23' W 090°53'1 0.5
2016-Aug-11 13:33N 32°23' W 090°53'3 3.2
2016-Aug-11 12:34N 32°20' W 090°54'0 0.4
2016-Aug-11 11:34N 32°20' W 090°54'0 0.0
2016-Aug-11 10:33N 32°20' W 090°54'0 0.0
2016-Aug-11 09:33N 32°20' W 090°54'0 0.0
2016-Aug-11 08:33N 32°20' W 090°54'0 0.0
2016-Aug-11 07:33N 32°20' W 090°54'0 0.0
2016-Aug-11 06:33N 32°20' W 090°54'0 0.0
2016-Aug-11 05:33N 32°20' W 090°54'0 0.0
2016-Aug-11 04:33N 32°20' W 090°54'0 0.0
2016-Aug-11 03:33N 32°20' W 090°54'0 0.0
2016-Aug-11 02:33N 32°20' W 090°54'0 0.0
2016-Aug-11 01:33N 32°20' W 090°54'0 0.0
2016-Aug-11 00:33N 32°20' W 090°54'0 0.0
2016-Aug-10 23:33N 32°20' W 090°54'0 0.0
2016-Aug-10 22:33N 32°20' W 090°54'0 0.0
2016-Aug-10 21:33N 32°20' W 090°54'0 0.0
2016-Aug-10 20:33N 32°20' W 090°54'0 0.0
2016-Aug-10 19:33N 32°20' W 090°54'0 0.0
2016-Aug-10 18:33N 32°20' W 090°54'0 0.1
2016-Aug-10 17:33N 32°20' W 090°54'3 3.3
2016-Aug-10 16:33N 32°23' W 090°53'0 0.0
2016-Aug-10 15:33N 32°23' W 090°53'3 3.4
2016-Aug-10 14:33N 32°20' W 090°54'0 0.0
2016-Aug-10 13:33N 32°20' W 090°54'0 0.0
2016-Aug-10 12:33N 32°20' W 090°54'0 0.0
2016-Aug-10 11:33N 32°20' W 090°54'0 0.0
2016-Aug-10 10:33N 32°20' W 090°54'0 0.0
2016-Aug-10 09:33N 32°20' W 090°54'0 0.0
2016-Aug-10 08:33N 32°20' W 090°54'0 0.0
2016-Aug-10 07:33N 32°20' W 090°54'0 0.0
2016-Aug-10 06:33N 32°20' W 090°54'0 0.0
2016-Aug-10 05:33N 32°20' W 090°54'0 0.0
2016-Aug-10 04:33N 32°20' W 090°54'0 0.0
2016-Aug-10 03:33N 32°20' W 090°54'0 0.0
2016-Aug-10 02:33N 32°20' W 090°54'0 0.0
2016-Aug-10 01:33N 32°20' W 090°54'0 0.0
2016-Aug-10 00:33N 32°20' W 090°54'0 0.0
2016-Aug-09 23:33N 32°20' W 090°54'0 0.0
2016-Aug-09 22:33N 32°20' W 090°54'0 0.0
2016-Aug-09 21:33N 32°20' W 090°54'0 0.0
2016-Aug-09 20:33N 32°20' W 090°54'0 0.0
2016-Aug-09 19:33N 32°20' W 090°54'0 0.0
2016-Aug-09 18:33N 32°20' W 090°54'0 0.0
2016-Aug-09 17:33N 32°20' W 090°54'0 0.0
2016-Aug-09 16:33N 32°20' W 090°54'0 0.0
2016-Aug-09 15:33N 32°20' W 090°54'0 0.0
2016-Aug-09 14:33N 32°20' W 090°54'0 0.0
2016-Aug-09 13:33N 32°20' W 090°54'0 0.0
2016-Aug-09 12:33N 32°20' W 090°54'0 0.0
2016-Aug-09 11:33N 32°20' W 090°54'0 0.0
2016-Aug-09 10:33N 32°20' W 090°54'0 0.0
2016-Aug-09 09:33N 32°20' W 090°54'0 0.0
2016-Aug-09 08:33N 32°20' W 090°54'0 0.0
2016-Aug-09 07:33N 32°20' W 090°54'0 0.0
2016-Aug-09 06:33N 32°20' W 090°54'0 0.0
2016-Aug-09 05:33N 32°20' W 090°54'0 0.0
2016-Aug-09 04:33N 32°20' W 090°54'0 0.0
2016-Aug-09 03:33N 32°20' W 090°54'0 0.0
2016-Aug-09 02:33N 32°20' W 090°54'0 0.0
2016-Aug-09 01:33N 32°20' W 090°54'0 0.0
2016-Aug-09 00:33N 32°20' W 090°54'0 0.0
2016-Aug-08 23:33N 32°20' W 090°54'0 0.0
2016-Aug-08 22:33N 32°20' W 090°54'0 0.0
2016-Aug-08 21:33N 32°20' W 090°54'0 0.0
2016-Aug-08 20:33N 32°20' W 090°54'0 0.0
2016-Aug-08 19:33N 32°20' W 090°54'0 0.0
2016-Aug-08 18:33N 32°20' W 090°54'0 0.0
2016-Aug-08 17:33N 32°20' W 090°54'0 0.0
2016-Aug-08 16:33N 32°20' W 090°54'0 0.0
2016-Aug-08 15:33N 32°20' W 090°54'0 0.0
2016-Aug-08 14:33N 32°20' W 090°54'0 0.0
2016-Aug-08 13:33N 32°20' W 090°54'0 0.0
2016-Aug-08 12:33N 32°20' W 090°54'0 0.0
2016-Aug-08 11:33N 32°20' W 090°54'0 0.0
2016-Aug-08 10:33N 32°20' W 090°54'0 0.0
2016-Aug-08 09:33N 32°20' W 090°54'0 0.0
2016-Aug-08 08:33N 32°20' W 090°54'0 0.0
2016-Aug-08 07:33N 32°20' W 090°54'0 0.0
2016-Aug-08 06:33N 32°20' W 090°54'0 0.0
2016-Aug-08 05:33N 32°20' W 090°54'0 0.0
2016-Aug-08 04:33N 32°20' W 090°54'0 0.0
2016-Aug-08 03:33N 32°20' W 090°54'0 0.0
2016-Aug-08 02:33N 32°20' W 090°54'0 0.0
2016-Aug-08 01:33N 32°20' W 090°54'0 0.0
2016-Aug-08 00:33N 32°20' W 090°54'0 0.0
2016-Aug-07 23:33N 32°20' W 090°54'0 0.0
2016-Aug-07 22:33N 32°20' W 090°54'0 0.0
2016-Aug-07 21:33N 32°20' W 090°54'0 0.0
2016-Aug-07 20:33N 32°20' W 090°54'0 0.0
2016-Aug-07 19:33N 32°20' W 090°54'0 0.0
2016-Aug-07 18:33N 32°20' W 090°54'0 0.0
2016-Aug-07 17:33N 32°20' W 090°54'0 0.0
2016-Aug-07 16:33N 32°20' W 090°54'0 0.0
2016-Aug-07 15:33N 32°20' W 090°54'0 0.0
2016-Aug-07 14:33N 32°20' W 090°54'0 0.0
2016-Aug-07 13:34N 32°20' W 090°54'0 0.0
2016-Aug-07 12:33N 32°20' W 090°54'0 0.0
2016-Aug-07 11:34N 32°20' W 090°54'0 0.0
2016-Aug-07 10:34N 32°20' W 090°54'0 0.0
2016-Aug-07 09:34N 32°20' W 090°54'0 0.0
2016-Aug-07 08:34N 32°20' W 090°54'0 0.0
2016-Aug-07 07:34N 32°20' W 090°54'0 0.0
2016-Aug-07 06:34N 32°20' W 090°54'0 0.0
2016-Aug-07 04:34N 32°20' W 090°54'0 0.0
2016-Aug-07 03:33N 32°20' W 090°54'0 0.0
2016-Aug-07 02:33N 32°20' W 090°54'0 0.0
2016-Aug-07 01:34N 32°20' W 090°54'0 0.0
2016-Aug-07 00:34N 32°20' W 090°54'0 0.0
2016-Aug-06 23:33N 32°20' W 090°54'0 0.0
2016-Aug-06 22:33N 32°20' W 090°54'0 0.0
2016-Aug-06 21:33N 32°20' W 090°54'0 0.0
2016-Aug-06 20:34N 32°20' W 090°54'0 0.0
2016-Aug-06 19:33N 32°20' W 090°54'0 0.0
2016-Aug-06 18:34N 32°20' W 090°54'0 0.0
2016-Aug-06 17:34N 32°20' W 090°54'0 0.0
2016-Aug-06 16:33N 32°20' W 090°54'0 0.0
2016-Aug-06 15:34N 32°20' W 090°54'0 0.0
2016-Aug-06 14:34N 32°20' W 090°54'0 0.0
2016-Aug-06 13:33N 32°20' W 090°54'0 0.0
2016-Aug-06 12:33N 32°20' W 090°54'0 0.0
2016-Aug-06 11:34N 32°20' W 090°54'0 0.0
2016-Aug-06 10:33N 32°20' W 090°54'0 0.0
2016-Aug-06 09:34N 32°20' W 090°54'0 0.0
2016-Aug-06 08:34N 32°20' W 090°54'0 0.0
2016-Aug-05 20:22N 32°20' W 090°54'0 0.0
2016-Aug-05 19:33N 32°20' W 090°54'0 0.0
2016-Aug-05 18:33N 32°20' W 090°54'0 0.0
2016-Aug-05 17:33N 32°20' W 090°54'0 0.0
2016-Aug-05 16:33N 32°20' W 090°54'0 0.0
2016-Aug-05 15:33N 32°20' W 090°54'0 0.0
2016-Aug-05 14:33N 32°20' W 090°54'0 0.0
2016-Aug-05 13:33N 32°20' W 090°54'0 0.0
2016-Aug-05 12:33N 32°20' W 090°54'0 0.0
2016-Aug-05 11:33N 32°20' W 090°54'0 0.0
2016-Aug-05 10:33N 32°20' W 090°54'0 0.0
2016-Aug-05 09:33N 32°20' W 090°54'0 0.0
2016-Aug-05 08:33N 32°20' W 090°54'0 0.0
2016-Aug-05 07:33N 32°20' W 090°54'0 0.0
2016-Aug-05 06:33N 32°20' W 090°54'0 0.0
2016-Aug-05 04:33N 32°20' W 090°54'0 0.0
2016-Aug-05 03:33N 32°20' W 090°54'0 0.0
2016-Aug-05 02:33N 32°20' W 090°54'0 0.0
2016-Aug-05 01:33N 32°20' W 090°54'0 0.0
2016-Aug-05 00:33N 32°20' W 090°54'0 0.0
2016-Aug-04 23:33N 32°20' W 090°54'0 0.0
2016-Aug-04 22:33N 32°20' W 090°54'0 0.0
2016-Aug-04 21:33N 32°20' W 090°54'0 0.0
2016-Aug-04 20:33N 32°20' W 090°54'0 0.0
2016-Aug-04 19:33N 32°20' W 090°54'0 0.0
2016-Aug-04 18:33N 32°20' W 090°54'0 0.0
2016-Aug-04 17:33N 32°20' W 090°54'0 0.0
2016-Aug-04 16:33N 32°20' W 090°54'0 0.0
2016-Aug-04 15:33N 32°20' W 090°54'0 0.0
2016-Aug-04 14:33N 32°20' W 090°54'0 0.0
2016-Aug-04 13:33N 32°20' W 090°54'0 0.0
2016-Aug-04 11:33N 32°20' W 090°54'0 0.0
2016-Aug-04 10:33N 32°20' W 090°54'0 0.0
2016-Aug-04 09:33N 32°20' W 090°54'0 0.0
2016-Aug-04 08:33N 32°20' W 090°54'0 0.0
2016-Aug-04 07:33N 32°20' W 090°54'0 0.0
2016-Aug-04 06:33N 32°20' W 090°54'0 0.0
2016-Aug-04 04:33N 32°20' W 090°54'0 0.0
2016-Aug-04 03:33N 32°20' W 090°54'0 0.0
2016-Aug-04 02:34N 32°20' W 090°54'0 0.0
2016-Aug-04 01:33N 32°20' W 090°54'0 0.0
2016-Aug-04 00:33N 32°20' W 090°54'0 0.0
2016-Aug-03 23:33N 32°20' W 090°54'0 0.0
2016-Aug-03 22:34N 32°20' W 090°54'0 0.0
2016-Aug-03 21:33N 32°20' W 090°54'0 0.0
2016-Aug-03 20:33N 32°20' W 090°54'0 0.0
2016-Aug-03 19:33N 32°20' W 090°54'0 0.0
2016-Aug-03 18:33N 32°20' W 090°54'0 0.0
2016-Aug-03 17:33N 32°20' W 090°54'0 0.0
2016-Aug-03 16:33N 32°20' W 090°54'0 0.0
2016-Aug-03 15:33N 32°20' W 090°54'0 0.0
2016-Aug-03 14:33N 32°20' W 090°54'0 0.0
2016-Aug-03 13:34N 32°20' W 090°54'0 0.0
2016-Aug-03 12:34N 32°20' W 090°54'0 0.0
2016-Aug-03 11:34N 32°20' W 090°54'0 0.0
2016-Aug-03 10:33N 32°20' W 090°54'0 0.0
2016-Aug-03 09:33N 32°20' W 090°54'0 0.0
2016-Aug-03 08:34N 32°20' W 090°54'0 0.0
2016-Aug-03 07:33N 32°20' W 090°54'0 0.0
2016-Aug-03 06:33N 32°20' W 090°54'0 0.0
2016-Aug-03 04:33N 32°20' W 090°54'0 0.0
2016-Aug-03 03:34N 32°20' W 090°54'0 0.0
2016-Aug-03 02:33N 32°20' W 090°54'0 0.0
2016-Aug-03 01:33N 32°20' W 090°54'0 0.0
2016-Aug-03 00:33N 32°20' W 090°54'0 0.0
2016-Aug-02 23:34N 32°20' W 090°54'0 0.0
2016-Aug-02 22:33N 32°20' W 090°54'0 0.0
2016-Aug-02 21:33N 32°20' W 090°54'0 0.0
2016-Aug-02 20:33N 32°20' W 090°54'0 0.0
2016-Aug-02 19:33N 32°20' W 090°54'  

Dump ship's entire track history